Time;durP1;ratioP1;P1;durP2;ratioP2;P2;SDS_P1;SDS_P2;PMS_P1;PMS_P2;Temp;Humidity;BMP_temperature;BMP_pressure;BME280_temperature;BME280_humidity;BME280_pressure;Samples;Min_cycle;Max_cycle;Signal;HPM_P1;HPM_P2
2021/12/29 00:00:21;;;;;;;22.57;12.83;;;1.70;96.70;;;;;;6327291;28;20199;-67
2021/12/29 00:03:22;;;;;;;21.77;12.13;;;1.80;96.70;;;;;;6331934;28;20194;-68
2021/12/29 00:06:23;;;;;;;24.97;12.83;;;1.80;96.70;;;;;;6348141;28;20183;-68
2021/12/29 00:09:24;;;;;;;29.40;16.07;;;1.70;96.70;;;;;;6330446;28;20196;-68
2021/12/29 00:12:26;;;;;;;20.60;13.43;;;1.70;96.70;;;;;;6322619;28;20239;-68
2021/12/29 00:15:28;;;;;;;26.53;15.43;;;1.70;96.70;;;;;;6323184;28;20286;-67
2021/12/29 00:18:31;;;;;;;21.77;12.57;;;1.60;96.70;;;;;;6322767;28;20226;-67
2021/12/29 00:21:33;;;;;;;21.53;12.23;;;1.60;96.70;;;;;;6325436;28;20196;-67
2021/12/29 00:24:34;;;;;;;32.00;18.43;;;1.60;96.70;;;;;;6327619;28;20184;-66
2021/12/29 00:27:35;;;;;;;29.13;17.63;;;1.60;96.70;;;;;;6314541;28;20195;-66
2021/12/29 00:30:36;;;;;;;27.40;17.07;;;1.50;96.70;;;;;;6329955;28;20278;-66
2021/12/29 00:33:55;;;;;;;20.87;13.67;;;1.50;96.70;;;;;;6349752;28;20192;-66
2021/12/29 00:37:23;;;;;;;27.30;16.00;;;1.60;96.70;;;;;;6339362;28;20238;-67
2021/12/29 00:40:42;;;;;;;26.23;16.30;;;1.50;96.70;;;;;;6338453;28;20172;-66
2021/12/29 00:44:02;;;;;;;23.43;14.13;;;1.40;96.70;;;;;;6338514;28;20188;-66
2021/12/29 00:47:21;;;;;;;25.47;15.20;;;1.50;96.70;;;;;;6352242;28;20282;-66
2021/12/29 00:50:22;;;;;;;30.17;18.20;;;1.60;96.80;;;;;;6335486;28;20199;-67
2021/12/29 00:53:23;;;;;;;24.20;16.27;;;1.60;96.80;;;;;;6335595;28;20210;-67
2021/12/29 00:56:24;;;;;;;18.43;13.67;;;1.50;96.70;;;;;;6334661;28;20191;-67
2021/12/29 00:59:24;;;;;;;26.80;16.60;;;1.60;96.80;;;;;;6326460;28;20230;-67
2021/12/29 01:02:25;;;;;;;21.93;13.57;;;1.60;96.80;;;;;;6327679;28;20188;-67
2021/12/29 01:05:26;;;;;;;24.73;14.60;;;1.60;96.80;;;;;;6325900;28;20190;-67
2021/12/29 01:08:27;;;;;;;17.63;11.70;;;1.60;96.70;;;;;;6327249;28;20274;-68
2021/12/29 01:11:28;;;;;;;24.83;15.00;;;1.60;96.80;;;;;;6326912;28;20235;-68
2021/12/29 01:14:30;;;;;;;18.17;11.13;;;1.50;96.70;;;;;;6342936;28;20191;-68
2021/12/29 01:17:32;;;;;;;18.70;12.23;;;1.60;96.70;;;;;;6340533;28;20337;-68
2021/12/29 01:20:33;;;;;;;20.60;12.70;;;1.60;96.70;;;;;;6357926;27;20256;-68
2021/12/29 01:23:34;;;;;;;22.40;13.10;;;1.60;96.70;;;;;;6305717;28;20198;-68
2021/12/29 01:26:35;;;;;;;28.30;16.17;;;1.50;96.70;;;;;;6359844;27;20188;-68
2021/12/29 01:29:36;;;;;;;24.40;14.67;;;1.60;96.80;;;;;;6351207;28;20192;-68
2021/12/29 01:32:38;;;;;;;28.13;15.53;;;1.50;96.70;;;;;;6334172;28;20195;-68
2021/12/29 01:35:41;;;;;;;24.93;16.07;;;1.60;96.80;;;;;;6333855;28;20188;-68
2021/12/29 01:38:41;;;;;;;22.57;14.13;;;1.50;96.70;;;;;;6325709;28;20235;-67
2021/12/29 01:41:44;;;;;;;18.03;11.20;;;1.50;96.70;;;;;;6351148;28;20251;-67
2021/12/29 01:44:45;;;;;;;19.00;12.73;;;1.60;96.80;;;;;;6329112;28;20193;-67
2021/12/29 01:47:48;;;;;;;19.83;13.23;;;1.60;96.80;;;;;;6325753;28;20199;-69
2021/12/29 01:50:51;;;;;;;27.73;16.40;;;1.60;96.80;;;;;;6332470;28;20302;-69
2021/12/29 01:54:14;;;;;;;22.07;13.73;;;1.60;96.70;;;;;;6310850;28;20233;-68
2021/12/29 01:57:15;;;;;;;20.80;13.23;;;1.60;96.70;;;;;;6352062;27;20217;-68
2021/12/29 02:00:19;;;;;;;26.37;15.47;;;1.60;96.70;;;;;;6350221;28;20190;-68
2021/12/29 02:03:20;;;;;;;22.27;11.93;;;1.60;96.70;;;;;;6359424;27;20228;-68
2021/12/29 02:06:21;;;;;;;20.53;11.60;;;1.60;96.70;;;;;;6347680;28;20307;-68
2021/12/29 02:09:22;;;;;;;22.57;12.83;;;1.60;96.70;;;;;;6333400;28;20184;-68
2021/12/29 02:12:23;;;;;;;25.00;15.80;;;1.60;96.70;;;;;;6333101;28;20260;-68
2021/12/29 02:15:24;;;;;;;21.97;13.40;;;1.40;96.60;;;;;;6326171;28;20287;-69
2021/12/29 02:18:25;;;;;;;21.07;13.63;;;1.40;96.60;;;;;;6325081;28;20219;-68
2021/12/29 02:21:29;;;;;;;20.17;12.43;;;1.40;96.60;;;;;;6342276;28;20270;-68
2021/12/29 02:24:40;;;;;;;26.83;14.63;;;1.50;96.60;;;;;;6332364;28;20250;-68
2021/12/29 02:27:42;;;;;;;17.57;11.20;;;1.40;96.60;;;;;;6326247;28;20208;-69
2021/12/29 02:30:43;;;;;;;19.73;12.20;;;1.50;96.70;;;;;;6327620;28;20352;-69
2021/12/29 02:33:44;;;;;;;20.87;12.37;;;1.40;96.60;;;;;;6348983;28;20192;-68
2021/12/29 02:36:45;;;;;;;23.33;15.60;;;1.40;96.60;;;;;;6321135;28;20230;-69
2021/12/29 02:39:48;;;;;;;14.40;11.07;;;1.40;96.50;;;;;;6307610;28;20190;-68
2021/12/29 02:42:49;;;;;;;16.33;10.60;;;1.40;96.50;;;;;;6323550;28;20186;-69
2021/12/29 02:45:58;;;;;;;20.57;13.10;;;1.30;96.50;;;;;;6329207;28;20231;-69
2021/12/29 02:49:01;;;;;;;13.73;10.17;;;1.30;96.40;;;;;;6309500;28;20215;-68
2021/12/29 02:52:03;;;;;;;19.27;11.73;;;1.30;96.50;;;;;;6359193;27;20252;-68
2021/12/29 02:55:04;;;;;;;16.23;11.07;;;1.30;96.50;;;;;;6349637;28;20229;-69
2021/12/29 02:58:05;;;;;;;17.17;10.97;;;1.30;96.50;;;;;;6313265;28;20218;-68
2021/12/29 03:01:12;;;;;;;15.20;10.87;;;1.20;96.40;;;;;;6343344;28;20190;-69
2021/12/29 03:04:13;;;;;;;17.57;10.60;;;1.20;96.30;;;;;;6346063;28;20184;-69
2021/12/29 03:07:13;;;;;;;17.67;12.40;;;1.10;96.30;;;;;;6348407;28;20190;-69
2021/12/29 03:10:14;;;;;;;17.43;11.23;;;1.10;96.30;;;;;;6349020;28;20281;-69
2021/12/29 03:13:15;;;;;;;15.33;10.40;;;1.10;96.30;;;;;;6331887;28;20203;-69
2021/12/29 03:16:16;;;;;;;15.63;10.17;;;1.10;96.30;;;;;;6346960;28;20243;-69
2021/12/29 03:19:17;;;;;;;15.37;11.37;;;1.10;96.30;;;;;;6326861;28;20219;-70
2021/12/29 03:22:18;;;;;;;22.80;14.97;;;1.10;96.30;;;;;;6331295;28;20196;-69
2021/12/29 03:25:18;;;;;;;24.37;15.10;;;1.10;96.30;;;;;;6332062;28;20180;-69
2021/12/29 03:28:22;;;;;;;20.60;13.77;;;1.20;96.30;;;;;;6331108;28;20196;-68
2021/12/29 03:31:23;;;;;;;15.27;11.90;;;1.10;96.30;;;;;;6364974;27;20273;-68
2021/12/29 03:34:24;;;;;;;17.57;12.37;;;1.10;96.20;;;;;;6325141;28;20191;-68
2021/12/29 03:37:25;;;;;;;15.43;11.63;;;1.00;96.10;;;;;;6314174;28;20248;-68
2021/12/29 03:40:26;;;;;;;16.83;11.77;;;1.10;96.20;;;;;;6348460;28;20182;-68
2021/12/29 03:43:30;;;;;;;16.70;11.77;;;1.10;96.20;;;;;;6344635;28;20185;-69
2021/12/29 03:46:33;;;;;;;13.43;9.83;;;1.10;96.20;;;;;;6367181;27;20195;-68
2021/12/29 03:49:34;;;;;;;12.80;9.13;;;1.10;96.20;;;;;;6331511;28;20199;-68
2021/12/29 03:52:35;;;;;;;14.83;9.93;;;1.00;96.10;;;;;;6349469;28;20276;-68
2021/12/29 03:55:36;;;;;;;12.43;8.77;;;1.00;96.10;;;;;;6359738;28;20215;-69
2021/12/29 03:58:37;;;;;;;14.33;10.60;;;1.10;96.20;;;;;;6354904;27;20268;-68
2021/12/29 04:01:37;;;;;;;15.07;11.10;;;1.10;96.10;;;;;;6326174;28;20237;-71
2021/12/29 04:04:38;;;;;;;17.23;11.57;;;1.10;96.10;;;;;;6330307;28;20193;-71
2021/12/29 04:07:40;;;;;;;13.93;11.37;;;1.20;96.10;;;;;;6331615;28;20204;-71
2021/12/29 04:10:40;;;;;;;17.07;11.57;;;1.20;96.10;;;;;;6324769;28;20312;-71
2021/12/29 04:13:43;;;;;;;15.33;10.43;;;1.20;96.20;;;;;;6348822;28;20183;-68
2021/12/29 04:16:46;;;;;;;14.83;10.23;;;1.20;96.00;;;;;;6310578;28;20219;-69
2021/12/29 04:23:08;;;;;;;16.47;10.87;;;1.20;96.00;;;;;;6351332;28;20190;-69
2021/12/29 04:26:09;;;;;;;13.30;9.30;;;1.30;96.00;;;;;;6332909;28;20200;-69
2021/12/29 04:29:13;;;;;;;13.93;9.90;;;1.30;96.00;;;;;;6345369;27;20199;-69
2021/12/29 04:32:14;;;;;;;13.57;10.07;;;1.30;96.00;;;;;;6362424;27;20287;-69
2021/12/29 04:35:15;;;;;;;11.03;8.73;;;1.20;95.80;;;;;;6315687;28;20191;-68
2021/12/29 04:38:16;;;;;;;14.30;10.20;;;1.30;95.90;;;;;;6310523;28;20250;-70
2021/12/29 04:41:17;;;;;;;13.47;10.23;;;1.30;95.80;;;;;;6327113;28;20222;-70
2021/12/29 04:44:18;;;;;;;13.83;10.23;;;1.30;95.70;;;;;;6310304;28;20180;-69
2021/12/29 04:47:21;;;;;;;12.70;9.57;;;1.30;95.80;;;;;;6328667;28;20197;-69
2021/12/29 04:50:36;;;;;;;11.53;8.27;;;1.30;95.70;;;;;;6334805;28;20194;-70
2021/12/29 04:53:37;;;;;;;12.27;8.90;;;1.40;95.80;;;;;;6375758;27;20200;-71
2021/12/29 04:56:38;;;;;;;13.90;9.83;;;1.40;95.80;;;;;;6308162;28;20192;-67
2021/12/29 04:59:39;;;;;;;12.23;9.70;;;1.50;95.90;;;;;;6361782;27;20298;-67
2021/12/29 05:02:40;;;;;;;9.43;7.93;;;1.60;95.90;;;;;;6352100;27;20202;-67
2021/12/29 05:05:54;;;;;;;15.10;9.37;;;1.70;95.90;;;;;;6323198;28;20248;-67
2021/12/29 05:08:55;;;;;;;12.27;9.30;;;1.70;95.90;;;;;;6353466;27;20199;-68
2021/12/29 05:11:55;;;;;;;10.43;7.87;;;1.70;95.70;;;;;;6319986;28;20243;-68
2021/12/29 05:14:56;;;;;;;9.77;7.33;;;1.80;95.70;;;;;;6320151;28;20208;-68
2021/12/29 05:17:58;;;;;;;10.20;8.00;;;1.70;95.60;;;;;;6365241;27;20219;-68
2021/12/29 05:21:00;;;;;;;9.10;7.43;;;1.70;95.60;;;;;;6342340;28;20217;-69
2021/12/29 05:24:01;;;;;;;14.00;10.97;;;1.80;95.50;;;;;;6358596;27;20265;-68
2021/12/29 05:27:02;;;;;;;15.03;10.70;;;1.80;95.50;;;;;;6314836;28;20188;-69
2021/12/29 05:30:04;;;;;;;13.20;8.67;;;1.70;95.20;;;;;;6342381;28;20194;-69
2021/12/29 05:33:05;;;;;;;15.20;10.83;;;1.70;95.30;;;;;;6332735;28;20196;-69
2021/12/29 05:36:06;;;;;;;12.70;9.60;;;1.70;95.20;;;;;;6356548;27;20184;-69
2021/12/29 05:39:08;;;;;;;13.23;9.77;;;1.70;95.10;;;;;;6354779;27;20215;-69
2021/12/29 05:42:08;;;;;;;14.30;9.77;;;1.70;95.10;;;;;;6314629;28;20201;-69
2021/12/29 05:45:12;;;;;;;13.07;10.13;;;1.80;95.10;;;;;;6347181;27;20184;-69
2021/12/29 05:48:13;;;;;;;11.07;9.47;;;1.70;94.80;;;;;;6359251;27;20196;-67
2021/12/29 05:51:14;;;;;;;14.73;10.10;;;1.60;94.90;;;;;;6357772;27;20245;-69
2021/12/29 05:54:15;;;;;;;21.25;17.83;;;1.70;95.10;;;;;;6319778;28;20716;-69
2021/12/29 05:57:16;;;;;;;20.17;16.23;;;1.80;95.10;;;;;;6333033;28;20250;-70
2021/12/29 06:00:19;;;;;;;15.17;11.40;;;1.70;95.00;;;;;;6355119;27;20281;-70
2021/12/29 06:03:20;;;;;;;16.40;12.33;;;1.70;94.90;;;;;;6341857;28;20243;-71
2021/12/29 06:06:21;;;;;;;17.13;12.40;;;1.80;95.10;;;;;;6343077;28;20190;-70
2021/12/29 06:09:22;;;;;;;14.63;11.50;;;1.80;95.10;;;;;;6352816;27;20206;-68
2021/12/29 06:12:22;;;;;;;13.47;10.03;;;1.80;95.00;;;;;;6356646;27;20673;-70
2021/12/29 06:15:23;;;;;;;11.83;9.53;;;1.80;94.90;;;;;;6333575;28;20278;-69
2021/12/29 06:18:24;;;;;;;16.73;11.80;;;1.80;95.10;;;;;;6366766;27;20216;-65
2021/12/29 06:21:26;;;;;;;15.27;11.50;;;1.90;95.30;;;;;;6332232;28;20289;-66
2021/12/29 06:24:27;;;;;;;14.93;11.27;;;1.90;94.40;;;;;;6306853;28;20194;-67
2021/12/29 06:27:28;;;;;;;17.53;12.77;;;1.90;94.80;;;;;;6329222;28;20195;-66
2021/12/29 06:30:29;;;;;;;15.63;10.40;;;1.90;94.80;;;;;;6338196;28;20199;-66
2021/12/29 06:33:30;;;;;;;11.27;8.87;;;1.90;94.70;;;;;;6330432;28;20227;-66
2021/12/29 06:36:30;;;;;;;17.17;11.93;;;1.90;94.80;;;;;;6344472;27;20210;-66
2021/12/29 06:39:31;;;;;;;20.10;12.57;;;1.90;94.70;;;;;;6334509;28;20220;-67
2021/12/29 06:42:32;;;;;;;21.70;12.33;;;1.90;94.70;;;;;;6323104;28;20253;-67
2021/12/29 06:45:33;;;;;;;18.53;12.43;;;1.90;94.70;;;;;;6349458;27;20192;-66
2021/12/29 06:48:34;;;;;;;22.43;14.47;;;1.80;94.30;;;;;;6332201;28;20203;-66
2021/12/29 06:51:35;;;;;;;19.47;12.77;;;1.90;94.50;;;;;;6349218;27;20196;-68
2021/12/29 06:54:37;;;;;;;20.40;12.77;;;1.90;94.60;;;;;;6331668;28;20250;-68
2021/12/29 06:57:38;;;;;;;19.77;12.47;;;1.80;94.10;;;;;;6324014;28;20226;-67
2021/12/29 07:00:39;;;;;;;19.30;11.40;;;1.80;94.50;;;;;;6323860;28;20188;-66
2021/12/29 07:03:40;;;;;;;19.73;12.43;;;1.80;94.30;;;;;;6327890;28;20198;-66
2021/12/29 07:06:41;;;;;;;15.33;10.17;;;1.80;94.50;;;;;;6314940;28;20215;-64
2021/12/29 07:09:42;;;;;;;17.13;10.27;;;1.80;94.40;;;;;;6315786;28;20204;-65
2021/12/29 07:12:43;;;;;;;15.47;10.90;;;1.80;94.30;;;;;;6324224;28;20322;-65
2021/12/29 07:15:43;;;;;;;16.03;10.77;;;1.70;93.80;;;;;;6348828;28;20187;-64
2021/12/29 07:18:48;;;;;;;15.40;11.33;;;1.70;93.70;;;;;;6331440;28;20215;-65
2021/12/29 07:21:49;;;;;;;15.40;11.27;;;1.80;94.30;;;;;;6332774;28;20184;-66
2021/12/29 07:24:50;;;;;;;16.53;12.30;;;1.70;94.30;;;;;;6303700;28;20199;-67
2021/12/29 07:27:52;;;;;;;21.97;12.80;;;1.80;94.40;;;;;;6325020;28;20196;-67
2021/12/29 07:30:52;;;;;;;18.80;12.50;;;1.80;94.10;;;;;;6331834;28;20263;-66
2021/12/29 07:33:54;;;;;;;17.43;11.33;;;1.80;93.90;;;;;;6323370;28;20196;-65
2021/12/29 07:36:55;;;;;;;17.87;12.10;;;1.70;93.90;;;;;;6337621;28;20203;-66
2021/12/29 07:39:55;;;;;;;21.30;13.80;;;1.80;94.20;;;;;;6340579;28;20239;-65
2021/12/29 07:42:56;;;;;;;20.23;13.20;;;1.70;93.70;;;;;;6322550;28;20192;-65
2021/12/29 07:45:57;;;;;;;19.13;13.07;;;1.70;93.90;;;;;;6338887;28;20189;-66
2021/12/29 07:48:58;;;;;;;14.27;10.53;;;1.70;94.10;;;;;;6331748;28;20199;-66
2021/12/29 07:51:59;;;;;;;14.43;10.57;;;1.80;94.10;;;;;;6307765;28;20285;-66
2021/12/29 07:55:00;;;;;;;18.50;12.47;;;1.80;94.20;;;;;;6332021;28;20203;-67
2021/12/29 07:58:01;;;;;;;14.93;11.07;;;1.70;93.90;;;;;;6321923;28;20298;-68
2021/12/29 08:01:03;;;;;;;16.90;12.20;;;1.70;93.60;;;;;;6333570;28;20200;-67
2021/12/29 08:04:03;;;;;;;18.33;12.63;;;1.70;94.00;;;;;;6339885;28;20199;-67
2021/12/29 08:07:04;;;;;;;19.63;13.67;;;1.70;93.90;;;;;;6342550;28;20194;-66
2021/12/29 08:10:06;;;;;;;22.63;14.87;;;1.70;93.90;;;;;;6316362;28;20188;-64
2021/12/29 08:13:08;;;;;;;19.37;12.67;;;1.70;94.10;;;;;;6333634;28;20325;-66
2021/12/29 08:16:08;;;;;;;22.43;14.03;;;1.70;94.10;;;;;;6331125;28;20184;-66
2021/12/29 08:19:09;;;;;;;20.03;12.80;;;1.70;93.90;;;;;;6329358;28;20268;-65
2021/12/29 08:22:11;;;;;;;20.80;14.80;;;1.70;94.00;;;;;;6323024;28;20264;-65
2021/12/29 08:25:12;;;;;;;26.90;16.85;;;1.80;94.30;;;;;;6328629;28;20787;-67
2021/12/29 08:28:12;;;;;;;19.73;12.13;;;1.90;94.30;;;;;;6330071;28;20199;-66
2021/12/29 08:31:13;;;;;;;19.57;12.93;;;2.00;94.60;;;;;;6310597;28;20199;-67
2021/12/29 08:34:15;;;;;;;17.57;11.43;;;2.10;94.70;;;;;;6304774;28;20193;-67
2021/12/29 08:37:16;;;;;;;17.83;12.37;;;2.20;94.60;;;;;;6346846;28;20199;-66
2021/12/29 08:40:17;;;;;;;21.20;11.73;;;2.30;94.50;;;;;;6336063;28;20195;-67
2021/12/29 08:43:18;;;;;;;18.67;12.73;;;2.30;94.60;;;;;;6330552;28;20192;-67
2021/12/29 08:46:19;;;;;;;17.10;11.50;;;2.40;94.70;;;;;;6321453;28;20200;-67
2021/12/29 08:49:20;;;;;;;20.73;14.63;;;2.50;94.70;;;;;;6324801;28;20250;-67
2021/12/29 08:52:21;;;;;;;23.40;15.27;;;2.60;94.70;;;;;;6326104;28;20200;-67
2021/12/29 08:55:22;;;;;;;23.93;16.07;;;2.80;94.40;;;;;;6350832;28;20205;-66
2021/12/29 08:58:25;;;;;;;16.40;12.77;;;2.80;93.30;;;;;;6352011;28;20227;-67
2021/12/29 09:01:26;;;;;;;19.00;13.23;;;2.80;93.60;;;;;;6317930;28;20188;-67
2021/12/29 09:04:27;;;;;;;21.20;14.30;;;2.80;94.10;;;;;;6332490;28;20180;-66
2021/12/29 09:07:28;;;;;;;18.77;12.97;;;2.80;93.80;;;;;;6348813;28;20225;-67
2021/12/29 09:10:29;;;;;;;23.90;15.60;;;3.00;94.20;;;;;;6328386;28;20235;-67
2021/12/29 09:13:30;;;;;;;24.03;14.37;;;3.20;93.90;;;;;;6332531;28;20212;-67
2021/12/29 09:16:31;;;;;;;20.33;13.77;;;3.30;93.20;;;;;;6326189;28;20191;-67
2021/12/29 09:19:34;;;;;;;24.00;15.37;;;3.20;93.50;;;;;;6319827;28;20223;-66
2021/12/29 09:22:35;;;;;;;23.23;14.27;;;3.20;93.90;;;;;;6314972;28;20245;-66
2021/12/29 09:25:38;;;;;;;21.73;14.90;;;3.30;93.80;;;;;;6310027;28;20188;-67
2021/12/29 09:28:40;;;;;;;21.33;14.40;;;3.40;93.90;;;;;;6331742;28;20186;-67
2021/12/29 09:31:42;;;;;;;19.53;13.37;;;3.30;93.30;;;;;;6309988;28;20183;-67
2021/12/29 09:34:42;;;;;;;23.57;15.30;;;3.40;93.50;;;;;;6329230;28;20188;-67
2021/12/29 09:37:43;;;;;;;26.90;16.13;;;3.40;93.30;;;;;;6342897;27;20211;-67
2021/12/29 09:40:46;;;;;;;19.70;14.67;;;3.40;93.50;;;;;;6336172;28;20195;-67
2021/12/29 09:43:48;;;;;;;21.60;14.37;;;3.50;93.80;;;;;;6363357;27;20195;-66
2021/12/29 09:46:49;;;;;;;20.03;12.87;;;3.60;93.40;;;;;;6343082;28;20188;-67
2021/12/29 09:49:50;;;;;;;15.67;11.80;;;3.60;93.60;;;;;;6326777;28;20220;-67
2021/12/29 09:52:51;;;;;;;20.13;13.67;;;3.70;93.60;;;;;;6345469;27;20198;-67
2021/12/29 09:55:52;;;;;;;15.80;11.60;;;3.80;93.70;;;;;;6323208;28;20244;-67
2021/12/29 09:58:53;;;;;;;20.47;15.73;;;3.80;93.90;;;;;;6347819;28;20211;-67
2021/12/29 10:01:55;;;;;;;17.57;12.27;;;3.80;93.40;;;;;;6332533;28;20192;-66
2021/12/29 10:04:57;;;;;;;23.00;13.77;;;4.00;93.70;;;;;;6329363;28;20202;-67
2021/12/29 10:08:05;;;;;;;20.00;13.93;;;4.10;94.10;;;;;;6322876;28;20283;-67
2021/12/29 10:11:11;;;;;;;17.47;14.20;;;4.30;94.10;;;;;;6357443;27;20238;-67
2021/12/29 10:14:16;;;;;;;22.23;14.07;;;4.30;93.30;;;;;;6333311;28;20192;-67
2021/12/29 10:17:17;;;;;;;20.07;13.60;;;4.50;92.70;;;;;;6326446;28;20195;-67
2021/12/29 10:20:18;;;;;;;17.83;12.40;;;4.50;93.00;;;;;;6341664;28;20198;-67
2021/12/29 10:23:29;;;;;;;15.20;10.93;;;4.60;93.60;;;;;;6321738;28;20207;-68
2021/12/29 10:26:33;;;;;;;14.90;11.70;;;4.70;93.30;;;;;;6358489;27;20192;-67
2021/12/29 10:29:39;;;;;;;19.73;12.83;;;4.80;93.40;;;;;;6338841;28;20230;-67
2021/12/29 10:32:40;;;;;;;16.27;12.10;;;4.90;93.00;;;;;;6325059;28;20245;-67
2021/12/29 10:35:41;;;;;;;17.13;12.33;;;5.00;93.40;;;;;;6333684;28;20195;-68
2021/12/29 10:38:45;;;;;;;17.83;11.67;;;5.20;93.50;;;;;;6325035;28;20219;-67
2021/12/29 10:41:46;;;;;;;15.10;10.13;;;5.30;93.50;;;;;;6367957;27;20188;-67
2021/12/29 10:44:54;;;;;;;19.83;12.83;;;5.40;93.60;;;;;;6317503;28;20195;-66
2021/12/29 10:47:54;;;;;;;18.50;10.97;;;5.50;93.50;;;;;;6335945;28;20320;-69
2021/12/29 10:51:05;;;;;;;14.60;11.13;;;5.60;92.60;;;;;;6333269;28;20199;-65
2021/12/29 10:54:16;;;;;;;13.30;9.07;;;5.60;92.70;;;;;;6348969;27;20199;-67
2021/12/29 10:57:17;;;;;;;15.80;11.33;;;5.60;93.00;;;;;;6324804;28;20275;-67
2021/12/29 11:00:19;;;;;;;14.73;11.20;;;5.80;92.70;;;;;;6344834;27;20193;-67
2021/12/29 11:03:22;;;;;;;16.50;11.20;;;5.80;91.80;;;;;;6337221;28;20188;-68
2021/12/29 11:06:25;;;;;;;15.27;10.73;;;5.70;92.40;;;;;;6342468;28;20184;-68
2021/12/29 11:09:32;;;;;;;15.47;10.80;;;5.60;92.90;;;;;;6327418;28;20194;-67
2021/12/29 11:12:44;;;;;;;13.93;10.50;;;5.70;93.20;;;;;;6376455;27;20243;-68
2021/12/29 11:15:52;;;;;;;15.70;10.43;;;5.70;93.40;;;;;;6300189;28;20299;-68
2021/12/29 11:18:53;;;;;;;13.67;10.30;;;5.80;93.80;;;;;;6330821;28;20215;-68
2021/12/29 11:22:05;;;;;;;11.73;9.43;;;5.80;93.80;;;;;;6332036;28;20643;-68
2021/12/29 11:25:07;;;;;;;15.63;11.90;;;5.80;93.80;;;;;;6364768;27;20184;-67
2021/12/29 11:28:37;;;;;;;16.37;12.47;;;5.90;94.10;;;;;;6324510;28;20226;-67
2021/12/29 11:31:42;;;;;;;17.33;10.50;;;6.00;94.00;;;;;;6340473;28;20180;-66
2021/12/29 11:34:43;;;;;;;13.27;10.13;;;6.20;93.70;;;;;;6336096;28;20207;-68
2021/12/29 11:37:50;;;;;;;17.77;11.90;;;6.30;92.00;;;;;;6328130;28;20222;-68
2021/12/29 11:40:56;;;;;;;14.23;11.00;;;6.30;91.40;;;;;;6323494;28;20230;-68
2021/12/29 11:43:56;;;;;;;20.23;13.13;;;6.40;92.20;;;;;;6338159;28;20196;-68
2021/12/29 11:46:58;;;;;;;13.63;11.70;;;6.50;92.40;;;;;;6331340;28;20188;-68
2021/12/29 11:49:59;;;;;;;16.27;12.20;;;6.60;92.80;;;;;;6331440;28;20223;-68
2021/12/29 11:53:21;;;;;;;19.43;12.63;;;6.70;93.00;;;;;;6327566;28;20191;-68
2021/12/29 11:56:22;;;;;;;18.77;12.20;;;6.90;93.60;;;;;;6361142;28;20184;-68
2021/12/29 11:59:31;;;;;;;17.47;11.40;;;7.00;93.40;;;;;;6365682;28;20215;-68
2021/12/29 12:02:31;;;;;;;17.00;10.73;;;7.20;92.10;;;;;;6314082;28;20196;-67
2021/12/29 12:05:36;;;;;;;16.70;12.27;;;7.30;91.40;;;;;;6348677;28;20241;-67
2021/12/29 12:08:38;;;;;;;15.20;10.40;;;7.40;91.90;;;;;;6329169;28;20192;-68
2021/12/29 12:11:49;;;;;;;14.40;11.00;;;7.60;90.30;;;;;;6339253;28;20235;-68
2021/12/29 12:14:52;;;;;;;10.37;8.03;;;7.80;89.80;;;;;;6320226;28;20272;-67
2021/12/29 12:17:55;;;;;;;13.23;9.97;;;8.00;88.40;;;;;;6322196;28;20295;-67
2021/12/29 12:20:58;;;;;;;16.53;11.37;;;8.20;87.70;;;;;;6320349;28;20193;-68
2021/12/29 12:24:18;;;;;;;15.60;11.70;;;8.30;87.60;;;;;;6306662;28;20192;-67
2021/12/29 12:27:30;;;;;;;17.70;13.73;;;8.30;85.60;;;;;;6327128;28;20199;-68
2021/12/29 12:30:41;;;;;;;18.80;13.27;;;8.40;84.10;;;;;;6348096;28;20192;-67
2021/12/29 12:33:41;;;;;;;15.37;12.80;;;8.40;84.60;;;;;;6352699;27;20188;-67
2021/12/29 12:36:42;;;;;;;16.73;13.17;;;8.40;84.60;;;;;;6313482;28;20199;-68
2021/12/29 12:40:04;;;;;;;17.60;13.93;;;8.40;85.90;;;;;;6329613;28;20254;-67
2021/12/29 12:43:12;;;;;;;20.07;13.57;;;8.40;86.00;;;;;;6366469;27;20193;-67
2021/12/29 12:46:13;;;;;;;19.87;13.80;;;8.40;86.40;;;;;;6347042;27;20208;-65
2021/12/29 12:49:25;;;;;;;14.60;12.33;;;8.60;87.30;;;;;;6293550;28;20204;-67
2021/12/29 12:52:38;;;;;;;18.63;13.77;;;8.70;85.50;;;;;;6317509;28;20215;-68
2021/12/29 12:55:47;;;;;;;17.20;13.77;;;8.80;86.10;;;;;;6317900;28;20205;-68
2021/12/29 12:58:50;;;;;;;16.50;13.57;;;8.90;84.50;;;;;;6326365;28;20205;-69
2021/12/29 13:01:52;;;;;;;16.73;13.73;;;9.10;82.00;;;;;;6331409;28;20184;-68
2021/12/29 13:05:10;;;;;;;18.03;14.53;;;9.00;84.30;;;;;;6351753;28;20228;-68
2021/12/29 13:08:15;;;;;;;18.40;13.17;;;9.10;85.10;;;;;;6330030;28;20193;-65
2021/12/29 13:11:24;;;;;;;15.33;12.60;;;9.20;84.50;;;;;;6320336;28;20326;-66
2021/12/29 13:14:25;;;;;;;16.10;13.10;;;9.10;84.00;;;;;;6334842;28;20611;-66
2021/12/29 13:17:26;;;;;;;16.13;12.33;;;9.20;82.70;;;;;;6330536;28;20234;-66
2021/12/29 13:20:27;;;;;;;16.20;11.30;;;9.60;81.60;;;;;;6326636;28;20195;-67
2021/12/29 13:23:28;;;;;;;13.37;11.77;;;9.50;81.50;;;;;;6294882;28;20212;-66
2021/12/29 13:26:32;;;;;;;14.90;11.30;;;9.80;82.80;;;;;;6357501;27;20193;-66
2021/12/29 13:29:33;;;;;;;11.53;10.23;;;9.80;79.90;;;;;;6341358;28;20203;-66
2021/12/29 13:32:34;;;;;;;11.47;9.77;;;9.90;81.40;;;;;;6314659;28;20203;-66
2021/12/29 13:35:37;;;;;;;11.37;9.67;;;10.00;81.50;;;;;;6361306;27;20206;-66
2021/12/29 13:38:39;;;;;;;10.17;9.17;;;10.10;80.00;;;;;;6341071;28;20217;-66
2021/12/29 13:41:39;;;;;;;10.43;8.97;;;10.30;78.80;;;;;;6350042;28;20195;-66
2021/12/29 13:44:40;;;;;;;9.77;8.87;;;10.00;79.60;;;;;;6343117;28;20192;-66
2021/12/29 13:47:41;;;;;;;10.87;8.27;;;10.00;81.50;;;;;;6325762;28;20240;-66
2021/12/29 13:50:53;;;;;;;10.03;9.00;;;10.00;79.30;;;;;;6327397;28;20215;-66
2021/12/29 13:53:58;;;;;;;10.40;8.87;;;10.00;79.70;;;;;;6379024;27;20228;-66
2021/12/29 13:57:00;;;;;;;10.30;8.77;;;9.80;80.00;;;;;;6361155;27;20279;-65
2021/12/29 14:00:01;;;;;;;10.30;9.10;;;9.80;79.30;;;;;;6319650;28;20222;-66
2021/12/29 14:03:02;;;;;;;10.93;9.33;;;9.70;79.90;;;;;;6317257;28;20188;-64
2021/12/29 14:06:06;;;;;;;10.90;9.33;;;9.60;80.10;;;;;;6349612;27;20287;-64
2021/12/29 14:09:12;;;;;;;11.87;9.67;;;9.70;80.00;;;;;;6351299;27;20189;-64
2021/12/29 14:12:19;;;;;;;9.70;8.70;;;9.80;79.90;;;;;;6362231;27;20470;-64
2021/12/29 14:15:23;;;;;;;9.93;8.60;;;9.70;80.90;;;;;;6333681;28;20217;-64
2021/12/29 14:18:24;;;;;;;9.70;7.57;;;9.60;80.20;;;;;;6322977;28;20238;-64
2021/12/29 14:21:35;;;;;;;10.60;8.80;;;9.50;80.80;;;;;;6350697;27;20183;-65
2021/12/29 14:24:38;;;;;;;10.83;8.00;;;9.30;80.80;;;;;;6331388;28;20284;-64
2021/12/29 14:27:49;;;;;;;8.57;7.60;;;9.30;78.80;;;;;;6318446;27;20216;-64
2021/12/29 14:31:13;;;;;;;9.47;8.33;;;9.30;80.30;;;;;;6331670;28;20185;-64
2021/12/29 14:34:16;;;;;;;8.17;7.27;;;9.10;81.00;;;;;;6318333;28;20192;-64
2021/12/29 14:37:17;;;;;;;7.93;6.83;;;8.90;80.90;;;;;;6331040;28;20348;-64
2021/12/29 14:40:23;;;;;;;11.13;8.53;;;8.80;80.90;;;;;;6369168;27;20236;-64
2021/12/29 14:43:26;;;;;;;11.37;8.97;;;8.60;80.70;;;;;;6365580;27;20192;-64
2021/12/29 14:46:28;;;;;;;8.10;7.23;;;8.40;83.00;;;;;;6336403;28;20189;-63
2021/12/29 14:49:33;;;;;;;8.93;6.67;;;8.30;82.70;;;;;;6330898;28;20249;-63
2021/12/29 14:52:42;;;;;;;7.97;6.60;;;8.10;83.30;;;;;;6325761;27;20196;-64
2021/12/29 14:55:44;;;;;;;6.93;6.13;;;8.00;83.40;;;;;;6358645;27;20189;-63
2021/12/29 14:58:45;;;;;;;8.03;7.23;;;7.80;83.80;;;;;;6321380;28;20231;-64
2021/12/29 15:01:46;;;;;;;7.23;6.07;;;7.60;83.40;;;;;;6340435;28;20634;-64
2021/12/29 15:05:09;;;;;;;7.60;6.33;;;7.40;85.10;;;;;;6331830;28;20192;-63
2021/12/29 15:08:10;;;;;;;8.80;6.50;;;7.30;85.60;;;;;;6368764;27;20200;-63
2021/12/29 15:11:12;;;;;;;8.47;7.00;;;7.20;85.30;;;;;;6362122;27;20235;-62
2021/12/29 15:14:22;;;;;;;11.60;9.00;;;7.00;86.20;;;;;;6361987;27;20199;-65
2021/12/29 15:17:23;;;;;;;9.47;7.70;;;6.90;86.30;;;;;;6340647;28;20220;-65
2021/12/29 15:20:25;;;;;;;12.40;7.80;;;6.60;86.20;;;;;;6355692;27;20195;-66
2021/12/29 15:23:32;;;;;;;7.57;6.13;;;6.60;86.60;;;;;;6355987;27;20188;-64
2021/12/29 15:26:33;;;;;;;8.67;7.47;;;6.60;87.30;;;;;;6333701;28;20189;-64
2021/12/29 15:29:34;;;;;;;10.43;8.43;;;6.60;88.10;;;;;;6338557;27;20211;-64
2021/12/29 15:32:35;;;;;;;9.57;7.53;;;6.50;87.10;;;;;;6339258;28;20198;-64
2021/12/29 15:35:36;;;;;;;11.17;7.93;;;6.30;87.50;;;;;;6348943;27;20215;-64
2021/12/29 15:38:37;;;;;;;10.60;7.70;;;6.30;87.20;;;;;;6339332;28;20250;-65
2021/12/29 15:41:38;;;;;;;11.03;7.93;;;6.20;87.60;;;;;;6344250;27;20191;-67
2021/12/29 15:44:39;;;;;;;7.47;6.30;;;6.10;87.80;;;;;;6333571;28;20220;-65
2021/12/29 15:47:43;;;;;;;10.30;7.17;;;6.10;88.30;;;;;;6353223;27;20194;-65